White Oaks, New Mexico
Current Conditions -  °F | °C
As of 10:35 AM on Monday 24 Nov 2014 (Local Time) from KSRR Reporting Station
Clear Clear  
Wind Chill: 26°   Ceiling: Unl
Heat Index: 37°   Visibility: 10mi
Dew Point: -6°   Wind: 23mph
Humidity: 16%   Direction: 320°NW
Pressure: 30.12"   Gusts: 31mph
Location:  33.6269°N, 105.978°W
Report Text: KSRR 241735Z AUTO 32020G27KT 10SM CLR 03/M21 A3012 RMK AO2
Loading
Personal Weather Stations






























Interactive Weather Map New forecast layout! Learn more

10-Day Weather Forecast

Advertisements
Track Severe Weather on mobile